Time;durP1;ratioP1;P1;durP2;ratioP2;P2;SDS_P1;SDS_P2;PMS_P1;PMS_P2;Temp;Humidity;BMP_temperature;BMP_pressure;BME280_temperature;BME280_humidity;BME280_pressure;Samples;Min_cycle;Max_cycle;Signal;HPM_P1;HPM_P2
2021/03/23 00:00:55;;;;;;;3.20;1.98;;;;;;;3.93;76.79;99765.81;5090996;28;20035;-71
2021/03/23 00:03:29;;;;;;;2.03;1.40;;;;;;;4.04;76.01;99763.25;5091091;28;20091;-72
2021/03/23 00:05:56;;;;;;;1.50;1.23;;;;;;;4.02;77.25;99775.81;5091223;28;20043;-72
2021/03/23 00:08:30;;;;;;;3.33;1.73;;;;;;;3.91;77.28;99776.69;5090885;28;20024;-71
2021/03/23 00:10:59;;;;;;;3.80;1.70;;;;;;;3.98;75.91;99779.19;5090835;28;20445;-70
2021/03/23 00:13:25;;;;;;;2.45;1.65;;;;;;;4.03;76.86;99774.13;5091158;28;20520;-71
2021/03/23 00:15:51;;;;;;;2.13;1.38;;;;;;;4.16;75.99;99775.75;5089445;28;20055;-72
2021/03/23 00:18:18;;;;;;;2.60;1.50;;;;;;;3.90;76.42;99775.06;5091199;28;20028;-70
2021/03/23 00:20:44;;;;;;;3.25;1.88;;;;;;;4.02;76.00;99772.47;5090965;28;20092;-71
2021/03/23 00:23:10;;;;;;;3.22;1.70;;;;;;;3.91;75.88;99764.13;5090791;28;20509;-72
2021/03/23 00:25:36;;;;;;;3.10;1.90;;;;;;;4.13;76.15;99753.97;5089634;28;20047;-72
2021/03/23 00:28:02;;;;;;;3.08;1.92;;;;;;;4.12;76.73;99764.84;5090654;28;20024;-71
2021/03/23 00:30:27;;;;;;;3.10;1.92;;;;;;;4.00;77.77;99766.63;5090227;28;20492;-72
2021/03/23 00:32:53;;;;;;;4.30;2.00;;;;;;;4.01;77.94;99758.22;5090811;28;20052;-72
2021/03/23 00:35:19;;;;;;;3.30;2.35;;;;;;;3.96;76.88;99764.97;5090727;28;20024;-71
2021/03/23 00:37:49;;;;;;;4.97;2.67;;;;;;;4.05;78.50;99769.94;5090906;28;20032;-70
2021/03/23 00:40:26;;;;;;;4.43;3.00;;;;;;;4.10;77.26;99765.72;5089572;28;20025;-71
2021/03/23 00:42:51;;;;;;;4.68;3.10;;;;;;;4.43;77.42;99767.19;5090627;28;20501;-72
2021/03/23 00:45:18;;;;;;;5.22;2.90;;;;;;;4.21;79.20;99769.00;5090626;28;20055;-71
2021/03/23 00:47:44;;;;;;;4.32;2.95;;;;;;;4.21;77.51;99772.38;5089373;28;20437;-71
2021/03/23 00:50:10;;;;;;;4.00;2.97;;;;;;;3.95;78.53;99754.06;5089227;28;20028;-72
2021/03/23 00:52:36;;;;;;;5.38;3.35;;;;;;;4.10;80.21;99760.69;5090597;28;20043;-72
2021/03/23 00:55:03;;;;;;;4.90;3.42;;;;;;;4.04;79.20;99765.75;5090774;28;20040;-72
2021/03/23 00:57:28;;;;;;;5.50;3.70;;;;;;;4.15;79.07;99756.47;5089141;28;20032;-71
2021/03/23 00:59:54;;;;;;;4.85;3.40;;;;;;;4.07;78.60;99761.53;5089548;28;20081;-71
2021/03/23 01:02:19;;;;;;;5.47;3.38;;;;;;;3.95;80.18;99769.16;5089242;28;20111;-71
2021/03/23 01:04:45;;;;;;;4.45;3.33;;;;;;;4.06;79.24;99779.16;5089384;28;20063;-72
2021/03/23 01:07:11;;;;;;;5.15;3.35;;;;;;;4.23;77.94;99777.38;5089031;28;20406;-71
2021/03/23 01:09:36;;;;;;;5.35;3.53;;;;;;;4.00;81.74;99779.19;5088939;28;20028;-72
2021/03/23 01:12:02;;;;;;;6.72;3.33;;;;;;;4.43;79.29;99778.09;5090603;28;20056;-71
2021/03/23 01:14:28;;;;;;;4.97;3.33;;;;;;;4.10;78.98;99774.09;5090210;28;20050;-72
2021/03/23 01:16:53;;;;;;;5.45;3.92;;;;;;;4.17;80.51;99769.88;5089336;28;20527;-71
2021/03/23 01:19:18;;;;;;;5.35;3.55;;;;;;;4.18;80.56;99776.59;5089183;28;20036;-71
2021/03/23 01:21:44;;;;;;;6.00;4.00;;;;;;;4.30;78.52;99761.38;5091412;28;20028;-72
2021/03/23 01:24:10;;;;;;;5.63;4.00;;;;;;;3.84;78.93;99770.03;5093879;28;20478;-71
2021/03/23 01:26:35;;;;;;;8.23;4.70;;;;;;;4.18;79.05;99769.03;5093882;28;20462;-71
2021/03/23 01:29:01;;;;;;;5.95;4.30;;;;;;;4.04;80.12;99770.78;5092413;28;20051;-72
2021/03/23 01:31:26;;;;;;;6.72;4.60;;;;;;;4.06;78.34;99777.47;5092560;28;20036;-71
2021/03/23 01:33:52;;;;;;;7.13;4.60;;;;;;;4.11;77.08;99790.03;5092376;28;20029;-71
2021/03/23 01:36:17;;;;;;;6.10;4.28;;;;;;;4.13;78.92;99784.16;5092516;28;20020;-71
2021/03/23 01:38:42;;;;;;;5.78;3.78;;;;;;;4.29;76.96;99780.69;5092273;28;20054;-71
2021/03/23 01:41:09;;;;;;;5.93;4.30;;;;;;;4.38;78.08;99783.16;5093573;28;20027;-71
2021/03/23 01:43:36;;;;;;;6.82;3.75;;;;;;;4.32;78.87;99784.84;5092372;28;20058;-71
2021/03/23 01:46:22;;;;;;;6.47;4.25;;;;;;;4.23;79.39;99785.78;5093405;28;20024;-71
2021/03/23 01:48:47;;;;;;;6.60;4.38;;;;;;;4.06;80.27;99774.13;5092002;28;20568;-71
2021/03/23 01:51:13;;;;;;;5.95;4.47;;;;;;;4.16;81.28;99776.56;5092638;28;20016;-71
2021/03/23 01:53:49;;;;;;;6.45;4.93;;;;;;;4.10;78.66;99775.78;5093670;28;20036;-71
2021/03/23 01:56:16;;;;;;;6.65;4.35;;;;;;;4.14;79.88;99769.91;5093258;28;20024;-71
2021/03/23 01:58:45;;;;;;;7.35;4.60;;;;;;;4.30;79.41;99769.78;5092212;28;20023;-70
2021/03/23 02:01:14;;;;;;;6.82;4.90;;;;;;;3.94;78.45;99769.97;5093047;28;20081;-71
2021/03/23 02:03:41;;;;;;;6.65;4.93;;;;;;;4.15;78.87;99764.00;5091836;28;20122;-71
2021/03/23 02:06:46;;;;;;;5.07;4.15;;;;;;;4.11;79.21;99762.34;5091926;28;20130;-71
2021/03/23 02:09:33;;;;;;;6.20;4.28;;;;;;;3.90;77.14;99767.50;5091911;28;20035;-71
2021/03/23 02:12:02;;;;;;;5.95;4.80;;;;;;;3.97;78.84;99769.13;5091669;28;20032;-71
2021/03/23 02:14:31;;;;;;;7.45;5.15;;;;;;;4.06;77.91;99774.13;5091385;28;20031;-71
2021/03/23 02:17:17;;;;;;;7.30;5.57;;;;;;;3.81;78.25;99773.41;5091557;28;20036;-71
2021/03/23 02:19:43;;;;;;;7.00;5.15;;;;;;;4.13;78.28;99778.28;5093017;28;20024;-71
2021/03/23 02:22:33;;;;;;;6.97;4.72;;;;;;;4.03;78.85;99774.13;5093081;28;20035;-71
2021/03/23 02:24:59;;;;;;;6.10;4.40;;;;;;;3.98;79.14;99779.19;5092171;28;20048;-71
2021/03/23 02:27:27;;;;;;;5.43;3.92;;;;;;;4.03;78.06;99777.50;5091335;28;20028;-71
2021/03/23 02:29:56;;;;;;;5.38;3.92;;;;;;;4.22;77.14;99780.72;5092551;28;20054;-71
2021/03/23 02:32:21;;;;;;;6.25;4.20;;;;;;;3.93;78.92;99773.34;5092544;28;20053;-71
2021/03/23 02:34:47;;;;;;;6.70;4.18;;;;;;;3.94;78.07;99784.25;5091365;28;20122;-71
2021/03/23 02:37:13;;;;;;;5.88;4.22;;;;;;;3.99;78.05;99785.03;5092551;28;20024;-71
2021/03/23 02:39:39;;;;;;;7.13;4.43;;;;;;;3.86;77.28;99791.00;5092536;28;20032;-71
2021/03/23 02:42:06;;;;;;;6.45;4.70;;;;;;;3.87;78.77;99795.16;5091254;28;20023;-70
2021/03/23 02:44:46;;;;;;;8.40;4.97;;;;;;;3.86;78.92;99803.56;5090894;28;20024;-72
2021/03/23 02:47:14;;;;;;;7.07;5.25;;;;;;;4.04;78.75;99799.25;5091049;28;20091;-71
2021/03/23 02:49:40;;;;;;;7.22;5.18;;;;;;;4.02;78.39;99790.06;5092470;28;20067;-71
2021/03/23 02:52:07;;;;;;;7.43;4.93;;;;;;;3.81;78.45;99780.94;5091014;28;20038;-71
2021/03/23 02:54:33;;;;;;;5.15;4.15;;;;;;;3.90;77.05;99800.19;5090827;28;20046;-71
2021/03/23 02:56:58;;;;;;;5.22;3.58;;;;;;;3.98;77.45;99788.41;5092199;28;20028;-71
2021/03/23 02:59:24;;;;;;;4.20;3.25;;;;;;;3.96;76.67;99792.63;5091968;28;20524;-71
2021/03/23 03:01:49;;;;;;;4.40;3.40;;;;;;;3.91;75.71;99795.16;5092183;28;20455;-71
2021/03/23 03:04:15;;;;;;;3.47;2.83;;;;;;;3.93;76.00;99795.97;5092127;28;20028;-71
2021/03/23 03:06:41;;;;;;;3.35;2.47;;;;;;;3.80;76.99;99785.97;5091901;28;20374;-71
2021/03/23 03:09:07;;;;;;;3.10;2.47;;;;;;;3.84;74.84;99801.06;5092046;28;20085;-71
2021/03/23 03:11:32;;;;;;;3.40;2.50;;;;;;;3.87;75.83;99803.53;5091869;28;20039;-70
2021/03/23 03:13:58;;;;;;;3.92;2.67;;;;;;;3.97;75.09;99794.28;5091912;28;20027;-71
2021/03/23 03:16:24;;;;;;;3.92;2.95;;;;;;;3.88;75.53;99804.38;5091902;28;20085;-71
2021/03/23 03:18:49;;;;;;;4.30;3.03;;;;;;;3.95;74.14;99798.47;5091728;28;20031;-71
2021/03/23 03:21:16;;;;;;;4.47;2.97;;;;;;;3.81;74.17;99795.19;5090538;28;20070;-71
2021/03/23 03:23:41;;;;;;;4.22;3.10;;;;;;;3.88;75.24;99806.91;5089891;28;20028;-71
2021/03/23 03:26:07;;;;;;;4.07;2.95;;;;;;;3.81;75.18;99807.75;5091503;28;20046;-71
2021/03/23 03:28:34;;;;;;;5.57;3.90;;;;;;;3.77;74.70;99809.44;5090389;28;20097;-70
2021/03/23 03:31:00;;;;;;;5.57;4.15;;;;;;;3.79;75.32;99810.28;5089870;28;20173;-71
2021/03/23 03:33:26;;;;;;;6.28;4.55;;;;;;;3.79;74.90;99812.78;5090288;28;20115;-71
2021/03/23 03:35:52;;;;;;;6.47;5.03;;;;;;;3.68;75.85;99819.53;5091451;28;20173;-71
2021/03/23 03:38:22;;;;;;;7.65;5.57;;;;;;;3.76;75.52;99814.47;5090069;28;20089;-71
2021/03/23 03:40:54;;;;;;;8.57;6.05;;;;;;;3.77;73.94;99816.13;5091479;28;20020;-71
2021/03/23 03:43:23;;;;;;;8.32;6.05;;;;;;;3.80;73.07;99824.53;5091538;28;20027;-71
2021/03/23 03:45:49;;;;;;;8.65;6.18;;;;;;;3.82;73.27;99834.56;5089423;28;20402;-70
2021/03/23 03:48:14;;;;;;;8.32;6.15;;;;;;;3.79;73.45;99819.47;5091413;28;20026;-70
2021/03/23 03:50:41;;;;;;;9.55;6.68;;;;;;;3.83;74.01;99832.03;5091220;28;20031;-71
2021/03/23 03:53:07;;;;;;;10.00;6.85;;;;;;;3.81;73.62;99841.28;5089631;28;20030;-71
2021/03/23 03:55:36;;;;;;;10.85;7.85;;;;;;;3.73;74.96;99848.00;5089876;28;20480;-71
2021/03/23 03:58:02;;;;;;;10.43;6.80;;;;;;;3.77;73.63;99848.81;5091051;28;20173;-71
2021/03/23 04:00:31;;;;;;;9.10;6.80;;;;;;;3.62;75.38;99837.16;5090861;28;20028;-71
2021/03/23 04:02:58;;;;;;;9.30;6.55;;;;;;;3.77;74.25;99863.91;5091225;28;20028;-71
2021/03/23 04:05:35;;;;;;;8.77;6.32;;;;;;;3.75;74.64;99855.53;5091004;28;20028;-71
2021/03/23 04:08:03;;;;;;;9.73;6.63;;;;;;;3.78;74.37;99868.09;5089778;28;20024;-71
2021/03/23 04:10:29;;;;;;;9.25;6.85;;;;;;;3.78;73.88;99861.41;5089697;28;20112;-71
2021/03/23 04:12:55;;;;;;;8.55;6.43;;;;;;;3.75;75.80;99880.66;5089944;28;20024;-71
2021/03/23 04:15:23;;;;;;;11.02;7.60;;;;;;;3.75;75.41;99884.00;5090672;28;20028;-72
2021/03/23 04:17:48;;;;;;;9.45;7.00;;;;;;;3.74;75.37;99884.88;5089607;28;20024;-71
2021/03/23 04:20:16;;;;;;;9.80;7.10;;;;;;;3.65;75.48;99892.41;5090747;28;20050;-71
2021/03/23 04:22:42;;;;;;;10.40;7.60;;;;;;;3.68;75.72;99891.56;5089820;28;20521;-71
2021/03/23 04:25:12;;;;;;;11.38;6.93;;;;;;;3.70;75.09;99898.28;5090429;28;20059;-70
2021/03/23 04:27:37;;;;;;;10.02;7.30;;;;;;;3.66;76.74;99898.28;5089526;28;20028;-71
2021/03/23 04:30:04;;;;;;;10.68;7.07;;;;;;;3.66;75.87;99895.78;5089624;28;20540;-71
2021/03/23 04:32:30;;;;;;;10.10;7.50;;;;;;;3.60;77.04;99905.84;5090694;28;20516;-71
2021/03/23 04:34:55;;;;;;;10.68;7.78;;;;;;;3.65;76.66;99910.00;5089586;28;20032;-71
2021/03/23 04:37:21;;;;;;;10.75;7.57;;;;;;;3.63;75.99;99911.69;5090791;28;20386;-72
2021/03/23 04:39:46;;;;;;;12.18;7.85;;;;;;;3.58;77.46;99917.56;5091042;28;20032;-72
2021/03/23 04:42:12;;;;;;;12.73;8.45;;;;;;;3.60;76.73;99918.41;5089422;28;20035;-72
2021/03/23 04:44:37;;;;;;;13.82;9.25;;;;;;;3.70;75.57;99922.56;5089314;28;20089;-71
2021/03/23 04:47:03;;;;;;;18.52;9.85;;;;;;;3.56;76.47;99916.72;5090499;28;20024;-72
2021/03/23 04:49:29;;;;;;;17.77;11.10;;;;;;;3.58;77.02;99920.06;5089518;28;20093;-71
2021/03/23 04:51:54;;;;;;;16.35;9.75;;;;;;;3.56;76.30;99924.25;5090764;28;20032;-72
2021/03/23 04:54:19;;;;;;;14.25;9.50;;;;;;;3.63;77.05;99928.44;5091270;28;20040;-72
2021/03/23 04:56:45;;;;;;;12.30;9.05;;;;;;;3.45;76.58;99925.09;5091126;28;20062;-72
2021/03/23 04:59:13;;;;;;;12.45;8.55;;;;;;;3.75;77.57;99928.41;5094205;28;20046;-72
2021/03/23 05:01:40;;;;;;;12.75;8.88;;;;;;;3.53;77.35;99925.94;5098776;28;20031;-71
2021/03/23 05:04:09;;;;;;;14.13;9.27;;;;;;;3.70;75.78;99928.44;5095547;28;20450;-71
2021/03/23 05:06:35;;;;;;;13.95;9.30;;;;;;;3.60;76.05;99933.47;5113889;28;20055;-71
2021/03/23 05:09:02;;;;;;;15.02;10.13;;;;;;;3.61;77.26;99927.59;5113561;28;20043;-72
2021/03/23 05:11:29;;;;;;;14.98;10.18;;;;;;;3.51;76.35;99922.59;5095833;28;20090;-74
2021/03/23 05:13:55;;;;;;;14.73;10.45;;;;;;;3.65;76.49;99934.28;5095627;28;20058;-72
2021/03/23 05:16:22;;;;;;;14.25;10.18;;;;;;;3.82;76.70;99935.13;5095713;28;20058;-71
2021/03/23 05:18:48;;;;;;;13.68;9.80;;;;;;;3.63;77.07;99925.91;5092960;28;20037;-71
2021/03/23 05:21:13;;;;;;;14.07;10.07;;;;;;;3.71;75.80;99924.22;5108217;28;20028;-72
2021/03/23 05:23:39;;;;;;;13.80;9.52;;;;;;;3.64;75.09;99935.16;5107763;28;20057;-71
2021/03/23 05:26:05;;;;;;;14.82;9.88;;;;;;;3.73;74.08;99927.59;4735682;28;10000278;-73
2021/03/23 05:28:30;;;;;;;13.60;9.35;;;;;;;3.73;75.87;99928.44;5088270;28;20082;-74
2021/03/23 05:30:57;;;;;;;15.65;10.10;;;;;;;3.69;75.08;99928.41;5086380;28;20241;-73
2021/03/23 05:33:23;;;;;;;16.52;10.50;;;;;;;3.66;75.89;99930.94;5086770;28;20039;-72
2021/03/23 05:35:51;;;;;;;14.68;10.27;;;;;;;3.64;75.14;99930.97;5087929;28;20024;-73
2021/03/23 05:38:18;;;;;;;16.90;10.65;;;;;;;3.45;75.31;99912.53;5087570;28;20032;-72
2021/03/23 05:40:47;;;;;;;16.95;11.25;;;;;;;3.58;74.78;99920.91;5090386;28;20675;-72
2021/03/23 05:43:31;;;;;;;18.08;10.68;;;;;;;3.62;74.73;99947.72;5090740;28;20024;-71
2021/03/23 05:46:16;;;;;;;20.50;11.45;;;;;;;3.75;75.45;99951.03;5093609;28;20063;-72
2021/03/23 05:49:12;;;;;;;15.13;10.18;;;;;;;3.65;75.89;99951.88;5092250;28;20066;-71
2021/03/23 05:51:38;;;;;;;16.45;10.60;;;;;;;3.62;76.41;99962.81;5092924;28;20035;-72
2021/03/23 05:54:12;;;;;;;15.10;10.50;;;;;;;3.65;75.35;99969.47;5092150;28;20035;-72
2021/03/23 05:56:39;;;;;;;16.52;10.18;;;;;;;3.73;75.54;99965.28;5092220;28;20481;-71
2021/03/23 05:59:15;;;;;;;15.75;10.63;;;;;;;3.57;75.72;99961.09;5093345;28;20071;-72
2021/03/23 06:01:48;;;;;;;17.08;10.50;;;;;;;3.72;76.32;99961.09;5090336;28;20541;-72
2021/03/23 06:04:20;;;;;;;15.90;10.95;;;;;;;3.67;75.31;99967.78;5090800;28;20479;-72
2021/03/23 06:06:59;;;;;;;15.07;10.38;;;;;;;3.65;75.65;99972.00;5092125;28;20030;-71
2021/03/23 06:09:34;;;;;;;24.05;13.63;;;;;;;3.92;75.13;99971.97;5093107;28;20032;-72
2021/03/23 06:12:20;;;;;;;19.35;11.60;;;;;;;3.99;75.95;99971.13;5092205;28;20027;-72
2021/03/23 06:15:43;;;;;;;19.00;10.45;;;;;;;3.97;75.09;99966.09;5092907;28;20481;-72
2021/03/23 06:18:33;;;;;;;16.35;10.20;;;;;;;3.89;74.94;99980.34;5068838;28;20111;-72
2021/03/23 06:21:09;;;;;;;26.83;14.15;;;;;;;4.05;74.72;99966.09;5107875;28;20032;-72
2021/03/23 06:23:49;;;;;;;17.15;10.02;;;;;;;3.92;74.34;99974.50;5107777;28;20032;-72
2021/03/23 06:26:15;;;;;;;16.40;10.15;;;;;;;4.01;73.49;99974.47;5101597;27;21024;-73
2021/03/23 06:28:55;;;;;;;15.43;10.07;;;;;;;4.03;72.50;99975.31;5088358;28;20382;-74
2021/03/23 06:31:43;;;;;;;17.52;10.27;;;;;;;4.16;73.23;99984.53;5088651;28;20108;-74
2021/03/23 06:34:18;;;;;;;14.68;9.25;;;;;;;3.84;71.44;99963.63;5087937;28;20477;-74
2021/03/23 06:36:44;;;;;;;13.07;9.02;;;;;;;3.99;71.81;99976.16;5088458;28;20081;-74
2021/03/23 06:39:16;;;;;;;14.52;8.70;;;;;;;4.16;72.14;99979.50;5088342;28;20036;-73
2021/03/23 06:42:01;;;;;;;14.88;9.55;;;;;;;4.05;70.79;99978.66;5069234;28;20028;-73
2021/03/23 06:44:34;;;;;;;28.27;12.52;;;;;;;4.39;70.70;99981.09;5087879;28;20040;-74
2021/03/23 06:47:00;;;;;;;14.75;9.75;;;;;;;4.34;70.78;99976.91;5069926;28;20505;-73
2021/03/23 06:49:38;;;;;;;23.75;11.60;;;;;;;4.39;70.67;99978.59;5069604;28;20028;-75
2021/03/23 06:52:16;;;;;;;14.55;9.20;;;;;;;4.31;70.10;99986.97;5069613;28;20668;-73
2021/03/23 06:54:43;;;;;;;13.25;9.27;;;;;;;4.48;69.45;99984.44;5087352;28;20046;-75
2021/03/23 06:57:13;;;;;;;13.70;9.00;;;;;;;4.86;68.86;99985.94;5069246;28;20028;-73
2021/03/23 07:00:05;;;;;;;16.20;9.73;;;;;;;5.17;68.96;99987.41;5069510;28;20063;-74
2021/03/23 07:02:40;;;;;;;22.25;11.20;;;;;;;5.07;68.98;99985.78;5088131;28;20056;-74
2021/03/23 07:05:33;;;;;;;15.25;9.93;;;;;;;5.00;69.10;99980.81;5070221;28;20116;-74
2021/03/23 07:07:58;;;;;;;21.38;11.60;;;;;;;4.88;69.21;99979.19;5069661;28;20549;-74
2021/03/23 07:10:33;;;;;;;16.40;9.48;;;;;;;4.93;68.12;99982.50;5069644;28;20020;-74
2021/03/23 07:13:02;;;;;;;15.65;8.60;;;;;;;4.64;68.67;99954.13;5069847;28;20028;-74
2021/03/23 07:15:37;;;;;;;24.77;11.25;;;;;;;4.91;67.75;99961.53;5069460;28;20036;-74
2021/03/23 07:18:06;;;;;;;13.85;9.30;;;;;;;5.42;66.61;99974.66;5087262;28;20074;-75
2021/03/23 07:20:37;;;;;;;14.68;8.75;;;;;;;5.36;64.96;99978.06;5086205;28;20580;-73
2021/03/23 07:23:23;;;;;;;13.52;8.55;;;;;;;5.10;65.65;99972.34;5067112;28;20104;-73
2021/03/23 07:25:50;;;;;;;13.05;7.80;;;;;;;5.15;66.83;99971.47;5069418;28;20487;-72
2021/03/23 07:28:36;;;;;;;12.07;8.60;;;;;;;5.41;66.06;99966.25;5106137;28;20102;-71
2021/03/23 07:31:23;;;;;;;12.52;8.30;;;;;;;5.42;65.45;99955.34;5088379;28;20057;-74
2021/03/23 07:34:10;;;;;;;16.83;9.40;;;;;;;5.96;64.58;99970.00;5088439;28;20023;-75
2021/03/23 07:36:59;;;;;;;10.77;7.43;;;;;;;5.27;65.44;99956.28;5107369;28;20504;-74
2021/03/23 07:39:40;;;;;;;12.50;8.02;;;;;;;5.28;65.38;99959.63;5089367;28;20050;-74
2021/03/23 07:42:15;;;;;;;16.55;9.30;;;;;;;5.38;64.46;99955.38;5106707;28;20630;-75
2021/03/23 07:44:52;;;;;;;12.60;7.53;;;;;;;5.47;63.59;99966.22;5107116;28;20463;-74
2021/03/23 07:47:51;;;;;;;12.60;7.95;;;;;;;5.55;63.70;99968.66;5089248;28;20059;-75
2021/03/23 07:50:34;;;;;;;14.00;7.80;;;;;;;5.56;62.85;99967.81;5081314;28;20067;-74
2021/03/23 07:53:07;;;;;;;12.63;7.20;;;;;;;5.32;61.63;99963.81;5107525;28;20056;-74
2021/03/23 07:55:34;;;;;;;11.82;6.85;;;;;;;5.45;61.93;99959.53;5107317;28;20115;-74
2021/03/23 07:58:12;;;;;;;11.70;7.78;;;;;;;5.79;60.67;99949.13;5089705;28;20107;-73
2021/03/23 08:00:49;;;;;;;12.95;7.70;;;;;;;6.53;59.44;99948.38;5107118;28;20039;-73
2021/03/23 08:03:44;;;;;;;11.43;7.10;;;;;;;6.22;60.24;99941.97;5107119;28;20028;-74
2021/03/23 08:06:38;;;;;;;10.35;7.20;;;;;;;6.84;58.80;99946.25;5087210;28;20051;-73
2021/03/23 08:09:28;;;;;;;11.20;6.88;;;;;;;6.56;57.31;99939.88;5087561;28;20088;-74
2021/03/23 08:12:31;;;;;;;10.45;7.20;;;;;;;7.15;58.61;99939.09;5086243;28;20035;-72
2021/03/23 08:15:15;;;;;;;11.82;7.20;;;;;;;6.95;57.07;99947.78;5086644;28;20035;-73
2021/03/23 08:17:53;;;;;;;12.38;7.63;;;;;;;6.96;58.54;99949.47;5104866;28;20088;-72
2021/03/23 08:20:36;;;;;;;13.23;7.32;;;;;;;7.31;54.89;99943.88;5104525;28;20494;-74
2021/03/23 08:23:22;;;;;;;10.00;6.50;;;;;;;7.44;55.00;99936.94;5105669;28;20031;-73
2021/03/23 08:26:01;;;;;;;9.63;6.47;;;;;;;7.88;53.66;99942.09;5089665;28;20456;-73
2021/03/23 08:28:49;;;;;;;8.82;5.45;;;;;;;7.53;52.23;99936.78;5127749;28;20042;-73
2021/03/23 08:31:30;;;;;;;8.02;5.72;;;;;;;7.78;52.83;99936.34;5108930;27;20508;-72
2021/03/23 08:34:26;;;;;;;9.52;5.40;;;;;;;7.19;53.63;99930.63;5112234;27;20038;-74
2021/03/23 08:37:37;;;;;;;9.30;6.35;;;;;;;8.83;52.46;99921.66;5130727;27;20046;-73
2021/03/23 08:40:24;;;;;;;9.95;5.50;;;;;;;8.00;52.66;99918.25;5111706;27;20027;-73
2021/03/23 08:42:49;;;;;;;9.20;5.95;;;;;;;7.23;51.42;99909.47;5130108;27;20046;-73
2021/03/23 08:45:18;;;;;;;8.77;6.28;;;;;;;8.08;50.97;99913.88;5112274;27;20023;-72
2021/03/23 08:47:50;;;;;;;9.88;6.00;;;;;;;7.95;51.00;99898.09;5128699;27;20031;-72
2021/03/23 08:50:15;;;;;;;6.75;4.88;;;;;;;7.54;50.19;99920.75;5111304;27;20019;-75
2021/03/23 08:52:47;;;;;;;8.13;4.97;;;;;;;8.37;50.23;99922.63;5130018;27;20034;-74
2021/03/23 08:55:28;;;;;;;6.68;4.47;;;;;;;8.05;49.87;99911.41;5110538;27;20118;-74
2021/03/23 08:58:07;;;;;;;8.93;5.35;;;;;;;8.55;49.23;99917.19;5111259;27;20035;-74
2021/03/23 09:00:40;;;;;;;6.88;4.30;;;;;;;7.56;48.84;99914.81;5129301;27;20034;-75
2021/03/23 09:03:11;;;;;;;5.95;3.67;;;;;;;7.12;50.35;99912.16;5110890;27;20277;-74
2021/03/23 09:05:49;;;;;;;6.47;4.22;;;;;;;7.26;50.55;99924.59;5129856;27;20027;-73
2021/03/23 09:08:16;;;;;;;5.85;3.83;;;;;;;8.31;48.94;99915.13;5110971;27;20423;-73
2021/03/23 09:10:54;;;;;;;5.53;3.50;;;;;;;8.28;47.95;99912.66;5110789;27;20041;-73
2021/03/23 09:13:44;;;;;;;7.90;3.97;;;;;;;8.56;48.21;99906.16;5129526;27;20084;-74
2021/03/23 09:16:12;;;;;;;4.65;2.90;;;;;;;8.59;46.47;99903.59;5110127;27;20118;-73
2021/03/23 09:19:02;;;;;;;5.88;3.33;;;;;;;8.17;48.12;99906.94;5128552;27;20071;-74
2021/03/23 09:21:51;;;;;;;6.90;3.50;;;;;;;8.68;46.06;99910.13;5110841;27;20092;-74
2021/03/23 09:24:29;;;;;;;5.85;3.33;;;;;;;8.88;45.19;99904.63;5061139;27;20120;-73
2021/03/23 09:26:56;;;;;;;5.53;3.55;;;;;;;8.69;46.08;99909.28;5095131;28;20463;-73
2021/03/23 09:29:24;;;;;;;8.40;3.60;;;;;;;9.07;46.03;99908.44;5088515;28;20024;-74
2021/03/23 09:31:50;;;;;;;6.03;3.17;;;;;;;8.61;45.16;99911.16;5088172;28;20028;-73
2021/03/23 09:34:53;;;;;;;5.07;3.30;;;;;;;8.12;45.58;99908.72;5089166;28;20047;-73
2021/03/23 09:37:39;;;;;;;5.93;3.47;;;;;;;8.57;45.89;99907.84;5088462;28;20571;-75
2021/03/23 09:40:30;;;;;;;6.65;3.55;;;;;;;8.22;46.30;99900.06;5086629;28;20071;-74
2021/03/23 09:43:02;;;;;;;6.18;3.95;;;;;;;7.83;46.24;99898.31;5085605;28;20051;-75
2021/03/23 09:45:35;;;;;;;5.85;3.20;;;;;;;7.44;46.78;99904.06;5087875;28;20102;-72
2021/03/23 09:48:23;;;;;;;4.70;3.00;;;;;;;7.51;46.45;99910.69;5087994;28;20020;-72
2021/03/23 09:50:52;;;;;;;6.28;3.75;;;;;;;7.79;46.99;99901.75;5086440;28;20070;-73
2021/03/23 09:53:37;;;;;;;7.18;4.00;;;;;;;8.63;45.33;99894.22;5088305;28;20075;-74
2021/03/23 09:56:24;;;;;;;6.25;3.60;;;;;;;8.26;45.35;99900.91;5086661;28;20028;-74
2021/03/23 09:59:14;;;;;;;5.35;2.58;;;;;;;7.97;45.47;99898.06;5088343;28;20522;-73
2021/03/23 10:01:59;;;;;;;4.55;2.65;;;;;;;8.11;44.75;99894.41;5088247;28;20032;-73
2021/03/23 10:04:40;;;;;;;5.85;2.13;;;;;;;8.32;43.82;99896.53;5086854;28;20024;-74
2021/03/23 10:07:24;;;;;;;4.22;2.50;;;;;;;9.09;42.39;99886.41;5087591;28;20027;-73
2021/03/23 10:09:49;;;;;;;4.05;2.40;;;;;;;8.67;42.48;99890.75;5086578;28;20040;-74
2021/03/23 10:12:28;;;;;;;3.75;2.10;;;;;;;8.71;42.33;99885.56;5087929;28;20028;-73
2021/03/23 10:14:53;;;;;;;5.35;2.72;;;;;;;9.19;40.88;99880.25;5088144;28;20459;-73
2021/03/23 10:17:28;;;;;;;5.13;2.50;;;;;;;9.14;40.19;99882.06;5087106;28;20024;-75
2021/03/23 10:19:59;;;;;;;3.53;1.80;;;;;;;8.83;40.81;99879.41;5086953;28;20036;-75
2021/03/23 10:22:31;;;;;;;5.22;2.08;;;;;;;8.39;41.20;99882.91;5087365;28;20047;-74
2021/03/23 10:24:59;;;;;;;3.88;2.13;;;;;;;8.21;41.46;99890.00;5087068;28;20089;-74
2021/03/23 10:27:31;;;;;;;3.50;2.20;;;;;;;8.42;41.51;99877.75;5106342;27;20035;-74
2021/03/23 10:30:05;;;;;;;4.32;2.33;;;;;;;9.32;40.71;99876.53;5110753;27;20027;-72
2021/03/23 10:32:46;;;;;;;4.20;2.33;;;;;;;9.31;41.80;99885.03;5110050;27;20129;-73
2021/03/23 10:35:14;;;;;;;5.85;1.90;;;;;;;8.68;41.39;99884.78;5128449;27;20092;-73
2021/03/23 10:37:40;;;;;;;3.83;1.90;;;;;;;9.15;41.03;99874.41;5128536;27;20499;-73
2021/03/23 10:40:37;;;;;;;4.15;2.40;;;;;;;8.69;40.98;99879.69;5110151;27;20039;-72
2021/03/23 10:43:03;;;;;;;3.70;1.77;;;;;;;9.05;40.89;99885.63;5109172;27;20035;-74
2021/03/23 10:45:41;;;;;;;3.72;2.00;;;;;;;8.79;40.84;99879.50;5128035;27;20023;-73
2021/03/23 10:48:28;;;;;;;3.50;1.90;;;;;;;8.30;41.99;99884.78;5110961;27;20027;-73
2021/03/23 10:51:17;;;;;;;5.20;2.20;;;;;;;9.16;42.86;99881.16;5128226;27;20795;-73
2021/03/23 10:54:03;;;;;;;4.38;2.22;;;;;;;9.14;41.79;99870.22;5127400;27;20039;-72
2021/03/23 10:56:32;;;;;;;4.07;2.60;;;;;;;8.90;42.32;99867.41;5107384;27;20520;-75
2021/03/23 10:59:04;;;;;;;4.80;2.90;;;;;;;9.85;42.03;99865.00;5107113;28;20100;-74
2021/03/23 11:01:30;;;;;;;5.47;3.42;;;;;;;9.13;42.23;99867.72;5089253;28;20101;-73
2021/03/23 11:04:10;;;;;;;4.47;2.80;;;;;;;9.89;41.16;99867.41;5088192;28;20048;-73
2021/03/23 11:06:36;;;;;;;3.85;2.70;;;;;;;10.89;40.10;99862.81;5106309;28;20024;-74
2021/03/23 11:09:07;;;;;;;4.07;2.78;;;;;;;9.64;42.23;99861.34;5089386;28;20085;-73
2021/03/23 11:11:33;;;;;;;;;;;;;;;10.95;41.04;99862.59;5088827;28;20500;-72
2021/03/23 11:13:59;;;;;;;3.92;2.33;;;;;;;9.84;41.02;99845.56;5106383;28;19973;-72
2021/03/23 11:16:28;;;;;;;4.28;2.58;;;;;;;10.22;40.82;99848.72;5106437;28;20055;-74
2021/03/23 11:18:59;;;;;;;2.65;2.10;;;;;;;10.71;40.34;99848.13;5105801;28;20132;-74
2021/03/23 11:21:31;;;;;;;3.88;2.55;;;;;;;11.30;38.80;99841.13;5088628;28;20038;-74
2021/03/23 11:23:56;;;;;;;3.25;2.42;;;;;;;9.90;41.45;99828.47;5088585;28;20410;-74
2021/03/23 11:26:26;;;;;;;3.92;2.55;;;;;;;10.64;38.76;99845.78;5098779;28;20032;-74
2021/03/23 11:28:53;;;;;;;3.55;2.20;;;;;;;11.32;37.95;99816.47;5084633;28;20032;-73
2021/03/23 11:31:21;;;;;;;7.55;3.75;;;;;;;12.46;37.32;99831.88;5085790;28;20073;-73
2021/03/23 11:33:47;;;;;;;5.25;3.50;;;;;;;11.71;37.57;99830.41;5084572;28;20028;-73
2021/03/23 11:36:12;;;;;;;4.50;2.90;;;;;;;10.15;41.29;99829.47;5084617;28;20382;-74
2021/03/23 11:38:39;;;;;;;4.57;3.00;;;;;;;11.25;40.99;99828.53;5084510;28;20393;-74
2021/03/23 11:41:13;;;;;;;3.78;2.75;;;;;;;10.13;42.51;99833.75;5085547;28;20028;-74
2021/03/23 11:43:46;;;;;;;3.80;2.63;;;;;;;10.80;39.76;99814.78;5085675;28;20113;-74
2021/03/23 11:46:26;;;;;;;6.07;3.40;;;;;;;10.06;40.65;99831.41;5085952;28;20020;-74
2021/03/23 11:48:56;;;;;;;3.65;2.60;;;;;;;9.35;43.52;99828.25;5085546;28;20039;-72
2021/03/23 11:51:24;;;;;;;3.17;2.08;;;;;;;9.13;41.67;99807.66;5086136;28;20115;-73
2021/03/23 11:53:49;;;;;;;6.28;3.22;;;;;;;9.59;44.86;99825.09;5084333;28;20059;-73
2021/03/23 11:56:16;;;;;;;4.82;2.95;;;;;;;9.44;44.40;99836.47;5083060;28;20024;-72
2021/03/23 11:58:41;;;;;;;3.63;2.40;;;;;;;9.00;42.77;99826.59;5084586;28;20124;-73
2021/03/23 12:01:07;;;;;;;4.70;2.35;;;;;;;9.47;43.37;99825.41;5084251;28;20070;-73